KSVC/SVC METAR and TAF weather

Enter ICAO airport designator
Station Type Date Time Source
KSVC METAR 2020/03/28 08:35 UTC NOAA

KSVC 280835Z AUTO 31009KT 10SM CLR M03/M06 A3007 RMK AO2 T10271065


Station Type Date Time Source
KSVC Decoded METAR 2020/03/28 08:35 UTC NOAA

Silver City / Grant, NM, United States (KSVC) 32-38N 108-09W
Mar 28, 2020 - 04:35 AM EDT / 2020.03.28 0835 UTC
Wind: from the NW (310 degrees) at 10 MPH (9 KT):0
Visibility: 10 mile(s):0
Sky conditions: clear
Temperature: 27.1 F (-2.7 C)
Windchill: 17 F (-8 C):1
Dew Point: 20.3 F (-6.5 C)
Relative Humidity: 75%
Pressure (altimeter): 30.07 in. Hg (1018 hPa)
ob: KSVC 280835Z AUTO 31009KT 10SM CLR M03/M06 A3007 RMK AO2 T10271065
cycle: 8

Station Type Date Time Source
KSVC TAF UTC NOAA

Error!

Example: see airport list